Time;durP1;ratioP1;P1;durP2;ratioP2;P2;SDS_P1;SDS_P2;PMS_P1;PMS_P2;Temp;Humidity;BMP_temperature;BMP_pressure;BME280_temperature;BME280_humidity;BME280_pressure;Samples;Min_cycle;Max_cycle;Signal;HPM_P1;HPM_P2
2022/07/10 00:01:52;;;;;;;8.63;0.40;;;14.30;99.90;;;;;;5056417;28;20065;-69
2022/07/10 00:04:20;;;;;;;6.18;0.45;;;14.30;99.90;;;;;;5019581;28;20040;-69
2022/07/10 00:06:49;;;;;;;11.45;0.65;;;14.20;99.90;;;;;;5053786;28;20072;-70
2022/07/10 00:09:14;;;;;;;7.90;0.50;;;14.10;99.90;;;;;;5052857;28;20043;-69
2022/07/10 00:11:41;;;;;;;9.07;0.57;;;14.10;99.90;;;;;;5019640;28;20052;-68
2022/07/10 00:14:07;;;;;;;12.43;0.68;;;14.00;99.90;;;;;;5055686;28;20096;-70
2022/07/10 00:16:32;;;;;;;9.02;0.57;;;14.00;99.90;;;;;;5040944;28;20495;-68
2022/07/10 00:18:58;;;;;;;10.45;0.80;;;14.00;99.90;;;;;;5056582;28;20633;-70
2022/07/10 00:21:24;;;;;;;9.35;0.55;;;14.00;99.90;;;;;;5054343;28;20052;-69
2022/07/10 00:23:49;;;;;;;9.68;0.50;;;13.90;99.90;;;;;;5054810;28;20044;-67
2022/07/10 00:26:15;;;;;;;5.35;0.65;;;13.90;99.90;;;;;;5034851;28;20048;-69
2022/07/10 00:28:41;;;;;;;10.13;0.45;;;13.90;99.90;;;;;;5055570;28;20052;-68
2022/07/10 00:31:06;;;;;;;8.98;0.40;;;13.90;99.90;;;;;;5048536;28;21287;-68
2022/07/10 00:33:32;;;;;;;8.13;0.45;;;13.80;99.90;;;;;;5053471;28;20127;-69
2022/07/10 00:35:58;;;;;;;6.60;0.47;;;13.70;99.90;;;;;;5055632;28;20052;-67
2022/07/10 00:38:24;;;;;;;10.32;0.60;;;13.70;99.90;;;;;;5037019;28;21135;-67
2022/07/10 00:40:50;;;;;;;9.93;0.70;;;13.70;99.90;;;;;;5055248;28;20124;-68
2022/07/10 00:43:16;;;;;;;8.80;0.47;;;13.70;99.90;;;;;;5057729;28;20044;-68
2022/07/10 00:45:42;;;;;;;5.95;0.70;;;13.70;99.90;;;;;;5017946;28;20167;-68
2022/07/10 00:48:09;;;;;;;9.75;0.90;;;13.80;99.90;;;;;;5055887;28;20028;-68
2022/07/10 00:50:35;;;;;;;8.15;0.57;;;13.90;99.90;;;;;;5050435;28;20702;-68
2022/07/10 00:53:02;;;;;;;6.75;0.60;;;13.90;99.90;;;;;;5055429;28;20102;-69
2022/07/10 00:55:30;;;;;;;6.47;0.50;;;14.00;99.90;;;;;;5049509;28;20051;-68
2022/07/10 00:57:55;;;;;;;8.32;0.55;;;14.00;99.90;;;;;;5055587;28;20837;-67
2022/07/10 01:00:21;;;;;;;7.43;0.60;;;14.10;99.90;;;;;;5051819;28;20060;-68
2022/07/10 01:02:47;;;;;;;6.15;0.40;;;14.10;99.90;;;;;;5053868;28;20032;-68
2022/07/10 01:05:13;;;;;;;13.57;0.88;;;14.10;99.90;;;;;;5054168;28;20086;-68
2022/07/10 01:07:39;;;;;;;14.75;0.70;;;14.20;99.90;;;;;;5056443;28;20103;-68
2022/07/10 01:10:06;;;;;;;9.32;0.60;;;14.20;99.90;;;;;;5052737;28;20090;-69
2022/07/10 01:12:31;;;;;;;5.93;0.32;;;14.20;99.90;;;;;;5048853;28;20040;-68
2022/07/10 01:14:58;;;;;;;8.13;0.55;;;14.20;99.90;;;;;;5050260;28;20084;-68
2022/07/10 01:17:25;;;;;;;3.75;0.30;;;14.10;99.90;;;;;;5051331;28;20051;-69
2022/07/10 01:19:51;;;;;;;5.55;0.50;;;14.00;99.90;;;;;;5045996;28;20040;-68
2022/07/10 01:22:16;;;;;;;6.38;0.55;;;14.00;99.90;;;;;;5032009;28;20695;-69
2022/07/10 01:24:43;;;;;;;5.25;0.40;;;13.90;99.90;;;;;;5056201;28;20039;-69
2022/07/10 01:27:09;;;;;;;6.68;0.30;;;13.90;99.90;;;;;;5053353;28;20044;-70
2022/07/10 01:29:35;;;;;;;7.47;0.47;;;13.90;99.90;;;;;;5051870;28;20857;-69
2022/07/10 01:32:02;;;;;;;7.75;0.50;;;13.80;99.90;;;;;;5065022;28;20123;-67
2022/07/10 01:34:27;;;;;;;7.05;0.40;;;13.80;99.90;;;;;;5049321;28;20053;-69
2022/07/10 01:36:53;;;;;;;5.82;0.30;;;13.80;99.90;;;;;;5047468;28;20368;-68
2022/07/10 01:39:19;;;;;;;6.75;0.38;;;13.80;99.90;;;;;;5051581;28;20052;-68
2022/07/10 01:41:45;;;;;;;8.13;0.40;;;13.80;99.90;;;;;;5055540;28;20063;-68
2022/07/10 01:44:11;;;;;;;6.28;0.45;;;13.90;99.90;;;;;;5056227;28;20454;-68
2022/07/10 01:46:44;;;;;;;6.90;0.68;;;13.90;99.90;;;;;;5058152;28;20036;-68
2022/07/10 01:49:10;;;;;;;8.68;0.52;;;13.90;99.90;;;;;;5047786;28;20093;-67
2022/07/10 01:51:35;;;;;;;8.30;0.70;;;13.90;99.90;;;;;;5049865;28;20641;-67
2022/07/10 01:54:01;;;;;;;4.65;0.40;;;13.90;99.90;;;;;;5051175;28;20685;-69
2022/07/10 01:56:27;;;;;;;10.57;0.60;;;14.00;99.90;;;;;;5053650;28;20415;-67
2022/07/10 01:58:52;;;;;;;6.43;0.40;;;14.00;99.90;;;;;;5048433;28;20044;-70
2022/07/10 02:01:18;;;;;;;11.27;0.70;;;14.00;99.90;;;;;;5053211;28;20132;-68
2022/07/10 02:06:29;;;;;;;8.70;0.60;;;14.10;99.90;;;;;;5068422;28;20059;-68
2022/07/10 02:08:55;;;;;;;5.38;0.43;;;14.10;99.90;;;;;;5059076;28;20048;-68
2022/07/10 02:11:20;;;;;;;12.95;0.77;;;14.10;99.90;;;;;;5059305;28;20086;-68
2022/07/10 02:13:46;;;;;;;7.63;0.65;;;14.10;99.90;;;;;;5056659;28;20063;-70
2022/07/10 02:16:12;;;;;;;7.47;0.50;;;14.10;99.90;;;;;;5053505;28;20108;-67
2022/07/10 02:18:39;;;;;;;15.88;0.80;;;14.10;99.90;;;;;;5054304;28;20039;-68
2022/07/10 02:21:04;;;;;;;10.43;0.88;;;14.10;99.90;;;;;;5054966;28;20609;-68
2022/07/10 02:23:30;;;;;;;5.55;0.40;;;14.10;99.90;;;;;;5054908;28;20045;-68
2022/07/10 02:25:56;;;;;;;9.25;0.65;;;14.10;99.90;;;;;;5060494;28;20028;-69
2022/07/10 02:28:22;;;;;;;7.47;0.80;;;14.10;99.90;;;;;;5059631;28;20128;-68
2022/07/10 02:30:47;;;;;;;11.27;0.80;;;14.10;99.90;;;;;;5056551;28;20036;-68
2022/07/10 02:33:13;;;;;;;9.70;0.68;;;14.10;99.90;;;;;;5052080;28;20052;-69
2022/07/10 02:35:39;;;;;;;7.95;0.60;;;14.10;99.90;;;;;;5056875;28;20717;-67
2022/07/10 02:38:04;;;;;;;8.15;0.77;;;14.20;99.90;;;;;;5056778;28;20499;-67
2022/07/10 02:40:30;;;;;;;6.53;0.68;;;14.20;99.90;;;;;;5057677;28;20082;-69
2022/07/10 02:42:56;;;;;;;4.88;0.63;;;14.30;99.90;;;;;;5054614;28;21356;-68
2022/07/10 02:45:21;;;;;;;7.30;0.40;;;14.30;99.90;;;;;;5069554;28;20766;-68
2022/07/10 02:47:47;;;;;;;8.45;0.77;;;14.30;99.90;;;;;;5052809;28;20112;-68
2022/07/10 02:50:13;;;;;;;7.88;0.60;;;14.40;99.90;;;;;;5057946;28;20452;-68
2022/07/10 02:52:38;;;;;;;6.80;0.40;;;14.40;99.90;;;;;;5054537;28;20036;-69
2022/07/10 02:55:05;;;;;;;9.45;0.50;;;14.40;99.90;;;;;;5038041;28;20086;-68
2022/07/10 02:57:30;;;;;;;10.48;1.02;;;14.40;99.90;;;;;;5076395;28;20051;-68
2022/07/10 02:59:56;;;;;;;5.35;0.47;;;14.40;99.90;;;;;;5053509;28;20059;-68
2022/07/10 03:02:21;;;;;;;5.85;0.45;;;14.40;99.90;;;;;;5049279;28;20044;-68
2022/07/10 03:04:47;;;;;;;8.30;1.02;;;14.40;99.90;;;;;;5058983;28;20937;-69
2022/07/10 03:07:13;;;;;;;8.25;0.60;;;14.40;99.90;;;;;;5060662;28;20198;-68
2022/07/10 03:09:39;;;;;;;6.00;0.60;;;14.30;99.90;;;;;;5055478;28;20074;-68
2022/07/10 03:12:05;;;;;;;7.43;0.50;;;14.30;99.90;;;;;;5056438;28;20106;-69
2022/07/10 03:14:30;;;;;;;8.77;0.80;;;14.30;99.90;;;;;;5059264;28;20050;-67
2022/07/10 03:16:56;;;;;;;10.98;0.70;;;14.30;99.90;;;;;;5056984;28;20068;-69
2022/07/10 03:19:22;;;;;;;11.13;0.50;;;14.20;99.90;;;;;;5055331;28;20041;-68
2022/07/10 03:21:47;;;;;;;7.38;0.55;;;14.20;99.90;;;;;;5056230;28;20060;-67
2022/07/10 03:24:13;;;;;;;8.77;0.80;;;14.20;99.90;;;;;;5053800;28;20048;-69
2022/07/10 03:26:39;;;;;;;10.98;0.73;;;14.20;99.90;;;;;;5057141;28;20535;-70
2022/07/10 03:29:05;;;;;;;8.57;0.50;;;14.20;99.90;;;;;;5052677;28;20127;-68
2022/07/10 03:31:31;;;;;;;8.80;0.80;;;14.20;99.90;;;;;;5053764;28;20652;-68
2022/07/10 03:33:57;;;;;;;7.70;0.60;;;14.30;99.90;;;;;;5050919;28;21020;-68
2022/07/10 03:36:22;;;;;;;9.63;0.52;;;14.30;99.90;;;;;;5058102;28;20045;-67
2022/07/10 03:38:48;;;;;;;10.88;1.08;;;14.30;99.90;;;;;;5053443;28;20058;-70
2022/07/10 03:41:14;;;;;;;10.50;0.75;;;14.40;99.90;;;;;;5056081;28;20047;-67
2022/07/10 03:43:40;;;;;;;10.13;1.02;;;14.40;99.90;;;;;;5068515;28;20044;-67
2022/07/10 03:46:06;;;;;;;10.60;0.88;;;14.40;99.90;;;;;;5054227;28;20540;-69
2022/07/10 03:48:32;;;;;;;9.23;0.90;;;14.40;99.90;;;;;;5048845;28;20072;-69
2022/07/10 03:50:58;;;;;;;13.57;0.85;;;14.40;99.90;;;;;;5054451;28;20497;-69
2022/07/10 03:53:24;;;;;;;9.75;0.70;;;14.50;99.90;;;;;;5060107;28;20170;-67
2022/07/10 03:55:50;;;;;;;11.30;0.88;;;14.50;99.90;;;;;;5044848;28;20048;-68
2022/07/10 03:58:15;;;;;;;9.57;0.57;;;14.60;99.90;;;;;;5059191;28;20101;-68
2022/07/10 04:00:42;;;;;;;9.50;0.80;;;14.60;99.90;;;;;;5052879;28;20048;-70
2022/07/10 04:03:08;;;;;;;10.68;1.00;;;14.70;99.90;;;;;;5056769;28;20070;-71
2022/07/10 04:05:34;;;;;;;13.57;0.70;;;14.70;99.90;;;;;;5061882;28;20797;-69
2022/07/10 04:08:01;;;;;;;8.55;1.17;;;14.80;99.90;;;;;;5050938;28;20424;-71
2022/07/10 04:10:28;;;;;;;9.07;0.80;;;14.80;99.90;;;;;;5055110;28;20052;-70
2022/07/10 04:12:54;;;;;;;11.45;0.80;;;14.90;99.90;;;;;;5051115;28;20079;-70
2022/07/10 04:15:20;;;;;;;8.73;0.77;;;14.90;99.90;;;;;;5032954;28;20051;-69
2022/07/10 04:17:46;;;;;;;7.38;0.77;;;14.90;99.90;;;;;;5054146;28;20055;-69
2022/07/10 04:20:13;;;;;;;11.18;1.00;;;14.90;99.90;;;;;;5054136;28;20433;-69
2022/07/10 04:22:39;;;;;;;8.15;0.70;;;15.00;99.90;;;;;;5048931;28;20052;-69
2022/07/10 04:25:05;;;;;;;9.02;1.13;;;15.00;99.90;;;;;;5053831;28;20040;-69
2022/07/10 04:27:31;;;;;;;7.55;0.75;;;15.10;99.90;;;;;;5051380;28;20117;-68
2022/07/10 04:29:57;;;;;;;10.52;0.90;;;15.10;99.90;;;;;;5056899;28;20036;-70
2022/07/10 04:32:23;;;;;;;10.40;0.50;;;15.10;99.90;;;;;;5054616;28;20040;-68
2022/07/10 04:34:49;;;;;;;8.30;0.85;;;15.10;99.90;;;;;;5055273;28;20346;-70
2022/07/10 04:37:15;;;;;;;9.55;1.00;;;15.10;99.90;;;;;;5051909;28;20423;-68
2022/07/10 04:39:40;;;;;;;8.75;0.70;;;15.20;99.90;;;;;;5053806;28;20042;-68
2022/07/10 04:42:07;;;;;;;13.50;1.00;;;15.20;99.90;;;;;;5052539;28;20036;-67
2022/07/10 04:44:33;;;;;;;12.73;0.73;;;15.10;99.90;;;;;;5054080;28;20044;-68
2022/07/10 04:46:59;;;;;;;12.15;0.82;;;15.20;99.90;;;;;;5055375;28;20435;-68
2022/07/10 04:49:25;;;;;;;11.88;1.10;;;15.20;99.90;;;;;;5053752;28;20059;-68
2022/07/10 04:51:51;;;;;;;9.07;0.70;;;15.20;99.90;;;;;;5057049;28;20447;-68
2022/07/10 04:54:17;;;;;;;10.65;0.60;;;15.20;99.90;;;;;;5054860;28;20360;-68
2022/07/10 04:56:43;;;;;;;7.85;0.80;;;15.30;99.90;;;;;;5053630;28;20052;-70
2022/07/10 04:59:09;;;;;;;10.15;0.90;;;15.30;99.90;;;;;;5047565;28;20670;-68
2022/07/10 05:01:35;;;;;;;9.38;0.70;;;15.30;99.90;;;;;;5053803;28;20036;-68
2022/07/10 05:04:01;;;;;;;9.25;0.63;;;15.30;99.90;;;;;;5051718;28;20040;-68
2022/07/10 05:06:27;;;;;;;10.35;0.90;;;15.20;99.90;;;;;;5053039;28;20087;-67
2022/07/10 05:08:53;;;;;;;9.23;0.80;;;15.20;99.90;;;;;;5054230;28;20048;-68
2022/07/10 05:11:19;;;;;;;6.78;0.60;;;15.20;99.90;;;;;;5058294;28;20042;-70
2022/07/10 05:13:46;;;;;;;12.38;1.25;;;15.20;99.90;;;;;;5052781;28;20051;-70
2022/07/10 05:16:13;;;;;;;12.25;0.80;;;15.20;99.90;;;;;;5058212;28;20083;-68
2022/07/10 05:18:39;;;;;;;12.30;0.60;;;15.30;99.90;;;;;;5056433;28;20915;-69
2022/07/10 05:21:05;;;;;;;7.75;0.52;;;15.30;99.90;;;;;;5052091;28;20048;-68
2022/07/10 05:23:31;;;;;;;10.43;1.10;;;15.30;99.90;;;;;;5052981;28;20395;-68
2022/07/10 05:25:56;;;;;;;11.40;0.90;;;15.30;99.90;;;;;;5068249;28;20044;-69
2022/07/10 05:28:22;;;;;;;11.10;1.13;;;15.30;99.90;;;;;;5034755;28;20366;-68
2022/07/10 05:30:48;;;;;;;12.57;1.23;;;15.20;99.90;;;;;;5054673;28;20096;-69
2022/07/10 05:33:15;;;;;;;9.73;0.77;;;15.20;99.90;;;;;;5050696;28;20120;-69
2022/07/10 05:35:41;;;;;;;16.33;1.17;;;15.20;99.90;;;;;;5053199;28;20094;-69
2022/07/10 05:38:07;;;;;;;9.43;0.93;;;15.20;99.90;;;;;;5051267;28;20132;-70
2022/07/10 05:40:33;;;;;;;9.75;0.80;;;15.30;99.90;;;;;;5049762;28;20093;-68
2022/07/10 05:42:59;;;;;;;11.95;0.93;;;15.30;99.90;;;;;;5071156;28;20043;-70
2022/07/10 05:45:24;;;;;;;10.63;0.70;;;15.30;99.90;;;;;;5058399;28;20076;-70
2022/07/10 05:47:50;;;;;;;12.90;0.80;;;15.30;99.90;;;;;;5056272;28;20044;-70
2022/07/10 05:50:16;;;;;;;10.95;0.95;;;15.30;99.90;;;;;;5037671;28;20707;-69
2022/07/10 05:52:42;;;;;;;11.55;0.70;;;15.40;99.90;;;;;;5037705;28;20602;-67
2022/07/10 05:55:08;;;;;;;9.30;0.50;;;15.30;99.90;;;;;;5054093;28;20130;-71
2022/07/10 05:57:34;;;;;;;12.88;0.82;;;15.30;99.90;;;;;;5055748;28;20327;-67
2022/07/10 06:00:00;;;;;;;8.38;1.02;;;15.30;99.90;;;;;;5054102;28;20127;-68
2022/07/10 06:02:26;;;;;;;9.65;0.80;;;15.30;99.90;;;;;;5056761;28;20052;-69
2022/07/10 06:04:52;;;;;;;10.85;1.02;;;15.30;99.90;;;;;;5054552;28;20025;-68
2022/07/10 06:07:18;;;;;;;8.95;0.68;;;15.30;99.90;;;;;;5055524;28;20064;-69
2022/07/10 06:09:44;;;;;;;8.48;0.80;;;15.30;99.90;;;;;;5059862;28;20045;-69
2022/07/10 06:12:10;;;;;;;11.13;1.00;;;15.20;99.90;;;;;;5054303;28;20109;-68
2022/07/10 06:14:35;;;;;;;9.20;0.80;;;15.20;99.90;;;;;;5040201;28;20651;-69
2022/07/10 06:17:01;;;;;;;8.85;0.90;;;15.20;99.90;;;;;;5056414;28;20033;-70
2022/07/10 06:19:27;;;;;;;9.13;0.90;;;15.30;99.90;;;;;;5058603;28;20537;-69
2022/07/10 06:24:39;;;;;;;7.85;0.65;;;15.30;99.90;;;;;;5054107;28;20529;-69
2022/07/10 06:27:05;;;;;;;7.95;0.60;;;15.40;99.90;;;;;;5036537;28;20048;-70
2022/07/10 06:29:31;;;;;;;7.88;0.85;;;15.40;99.90;;;;;;5053426;28;20051;-69
2022/07/10 06:31:56;;;;;;;9.23;0.65;;;15.40;99.90;;;;;;5054320;28;20037;-67
2022/07/10 06:34:22;;;;;;;9.48;0.77;;;15.50;99.90;;;;;;5055295;28;20056;-68
2022/07/10 06:36:48;;;;;;;8.77;0.70;;;15.60;99.90;;;;;;5054338;28;20116;-69
2022/07/10 06:39:14;;;;;;;11.30;0.60;;;15.70;99.90;;;;;;5052950;28;20292;-68
2022/07/10 06:41:40;;;;;;;9.32;0.70;;;15.90;99.90;;;;;;5056294;28;20113;-68
2022/07/10 06:44:05;;;;;;;8.77;0.50;;;16.10;99.90;;;;;;5050617;28;20040;-68
2022/07/10 06:46:32;;;;;;;7.63;0.70;;;16.40;99.90;;;;;;5050279;28;20105;-68
2022/07/10 06:48:59;;;;;;;5.53;0.43;;;16.70;99.90;;;;;;5037180;28;20044;-69
2022/07/10 06:51:25;;;;;;;7.65;0.32;;;16.80;99.90;;;;;;5057159;28;20044;-69
2022/07/10 06:53:51;;;;;;;4.05;0.20;;;17.00;99.90;;;;;;5055387;28;20044;-69
2022/07/10 06:56:17;;;;;;;1.85;0.20;;;16.80;99.90;;;;;;5054457;28;20044;-69
2022/07/10 06:58:43;;;;;;;3.92;0.30;;;16.90;99.90;;;;;;5052994;28;20056;-69
2022/07/10 07:01:09;;;;;;;4.60;0.20;;;17.10;99.90;;;;;;5055285;28;20044;-68
2022/07/10 07:03:35;;;;;;;5.85;0.25;;;17.10;99.90;;;;;;5054897;28;20044;-69
2022/07/10 07:06:00;;;;;;;7.32;0.45;;;17.00;99.90;;;;;;5060084;28;20039;-69
2022/07/10 07:08:29;;;;;;;2.67;0.20;;;17.20;99.90;;;;;;5054987;28;20083;-69
2022/07/10 07:10:55;;;;;;;2.60;0.20;;;17.00;99.90;;;;;;5052113;28;20036;-68
2022/07/10 07:13:20;;;;;;;3.88;0.20;;;17.10;99.90;;;;;;5059846;28;20040;-69
2022/07/10 07:15:53;;;;;;;5.20;0.50;;;17.10;99.90;;;;;;5055597;28;20039;-70
2022/07/10 07:18:21;;;;;;;5.13;0.28;;;17.10;99.90;;;;;;5059436;28;20089;-70
2022/07/10 07:23:31;;;;;;;5.60;0.30;;;16.80;99.90;;;;;;5051010;28;20624;-69
2022/07/10 07:25:57;;;;;;;8.10;0.50;;;17.00;99.90;;;;;;5038860;28;20131;-70
2022/07/10 07:28:23;;;;;;;7.45;0.50;;;17.00;99.90;;;;;;5055563;28;20546;-69
2022/07/10 07:30:49;;;;;;;3.72;0.35;;;17.10;99.90;;;;;;5053363;28;20044;-69
2022/07/10 07:33:15;;;;;;;3.50;0.20;;;17.10;99.90;;;;;;5057659;28;20118;-68
2022/07/10 07:35:41;;;;;;;6.20;0.20;;;17.00;99.90;;;;;;5075689;28;20048;-68
2022/07/10 07:38:07;;;;;;;5.88;0.30;;;17.20;99.90;;;;;;5057061;28;20059;-68
2022/07/10 07:40:33;;;;;;;4.15;0.20;;;17.30;99.90;;;;;;5053987;28;20549;-69
2022/07/10 07:42:58;;;;;;;6.82;0.40;;;17.50;99.90;;;;;;5055322;28;20499;-69
2022/07/10 07:45:25;;;;;;;5.00;0.30;;;17.50;99.90;;;;;;5056620;28;20044;-70
2022/07/10 07:47:56;;;;;;;4.28;0.30;;;17.70;99.90;;;;;;5051656;28;20044;-69
2022/07/10 07:50:31;;;;;;;3.30;0.20;;;17.90;99.90;;;;;;5053986;28;20045;-69
2022/07/10 07:52:57;;;;;;;4.18;0.30;;;18.10;99.90;;;;;;5053931;28;20060;-70
2022/07/10 07:55:23;;;;;;;3.00;0.20;;;18.20;99.90;;;;;;5057684;28;20040;-68
2022/07/10 07:57:53;;;;;;;9.10;0.45;;;18.00;99.90;;;;;;5032185;28;20036;-69
2022/07/10 08:00:19;;;;;;;6.07;0.40;;;17.50;99.90;;;;;;5052370;28;20056;-68
2022/07/10 08:02:45;;;;;;;4.40;0.32;;;17.20;99.90;;;;;;5053623;28;20139;-69
2022/07/10 08:05:11;;;;;;;4.05;0.30;;;17.00;99.90;;;;;;5059735;28;20375;-69
2022/07/10 08:07:44;;;;;;;6.22;0.40;;;17.00;99.90;;;;;;5053730;28;20141;-72
2022/07/10 08:10:14;;;;;;;5.40;0.40;;;17.20;99.90;;;;;;5057904;28;20039;-67
2022/07/10 08:12:41;;;;;;;7.80;0.30;;;17.00;99.90;;;;;;5051197;28;20043;-69
2022/07/10 08:15:09;;;;;;;4.90;0.57;;;17.30;99.90;;;;;;5049653;28;20044;-68
2022/07/10 08:17:34;;;;;;;4.13;0.30;;;17.40;99.90;;;;;;5051270;28;20093;-71
2022/07/10 08:20:01;;;;;;;5.22;0.40;;;17.30;99.90;;;;;;5054670;28;20290;-68
2022/07/10 08:22:26;;;;;;;6.50;0.40;;;17.20;99.90;;;;;;5035414;28;20079;-68
2022/07/10 08:24:52;;;;;;;7.85;0.50;;;17.30;99.90;;;;;;5048824;28;20147;-71
2022/07/10 08:27:18;;;;;;;7.05;0.40;;;17.20;99.90;;;;;;5055750;28;20547;-69
2022/07/10 08:29:43;;;;;;;7.55;0.40;;;17.10;99.90;;;;;;5053850;28;20040;-70
2022/07/10 08:32:09;;;;;;;4.88;0.52;;;16.90;99.90;;;;;;5051829;28;20036;-68
2022/07/10 08:34:36;;;;;;;7.15;0.45;;;17.00;99.90;;;;;;5053591;28;20123;-69
2022/07/10 08:37:02;;;;;;;8.13;0.95;;;16.90;99.90;;;;;;5017425;28;20566;-68
2022/07/10 08:39:27;;;;;;;11.02;0.70;;;16.80;99.90;;;;;;5053921;28;20110;-69
2022/07/10 08:41:53;;;;;;;6.10;0.45;;;16.70;99.90;;;;;;5055710;28;20079;-69
2022/07/10 08:44:19;;;;;;;7.82;0.50;;;16.40;99.90;;;;;;5033938;28;20695;-67
2022/07/10 08:46:45;;;;;;;5.82;0.30;;;16.60;99.90;;;;;;5054043;28;20137;-69
2022/07/10 08:49:13;;;;;;;4.22;0.35;;;16.80;99.90;;;;;;5050635;28;20048;-69
2022/07/10 08:52:04;;;;;;;3.60;0.20;;;17.00;99.90;;;;;;5033005;28;20097;-71
2022/07/10 08:54:31;;;;;;;6.97;0.57;;;17.40;99.90;;;;;;5050545;28;20089;-68
2022/07/10 08:56:59;;;;;;;8.95;0.50;;;17.50;99.90;;;;;;5051067;28;21169;-68
2022/07/10 08:59:25;;;;;;;5.50;0.30;;;17.50;99.90;;;;;;5033954;28;20052;-68
2022/07/10 09:01:53;;;;;;;5.60;0.40;;;17.50;99.90;;;;;;5037283;28;20048;-70
2022/07/10 09:04:21;;;;;;;3.92;0.40;;;17.90;99.90;;;;;;5053533;28;20036;-70
2022/07/10 09:06:47;;;;;;;3.60;0.50;;;18.20;99.90;;;;;;5033378;28;20044;-70
2022/07/10 09:09:13;;;;;;;5.38;0.30;;;18.50;99.90;;;;;;5052336;28;20479;-70
2022/07/10 09:11:42;;;;;;;3.85;0.32;;;18.30;99.90;;;;;;5051438;28;20125;-70
2022/07/10 09:14:11;;;;;;;3.63;0.30;;;18.10;99.90;;;;;;5048167;28;20110;-69
2022/07/10 09:16:39;;;;;;;5.60;0.30;;;18.20;99.90;;;;;;5054048;28;20083;-69
2022/07/10 09:19:15;;;;;;;5.82;0.47;;;18.30;99.90;;;;;;5058325;28;20618;-69
2022/07/10 09:21:41;;;;;;;5.05;0.20;;;18.30;99.90;;;;;;5057504;28;20149;-70
2022/07/10 09:24:08;;;;;;;3.25;0.20;;;18.20;99.90;;;;;;5051739;28;20131;-70
2022/07/10 09:26:36;;;;;;;4.45;0.30;;;17.90;99.90;;;;;;5057484;28;20040;-70
2022/07/10 09:29:12;;;;;;;2.78;0.22;;;17.90;99.90;;;;;;5058041;28;20362;-70
2022/07/10 09:31:58;;;;;;;4.70;0.30;;;17.70;99.90;;;;;;5038724;28;20132;-68
2022/07/10 09:34:45;;;;;;;5.90;0.50;;;17.60;99.90;;;;;;5053412;28;20053;-69
2022/07/10 09:37:39;;;;;;;8.15;0.40;;;16.90;99.90;;;;;;5053025;28;20435;-68
2022/07/10 09:40:06;;;;;;;6.10;0.38;;;16.80;99.90;;;;;;5050258;28;20065;-70
2022/07/10 09:42:36;;;;;;;4.43;0.30;;;16.60;99.90;;;;;;5054531;28;20513;-68
2022/07/10 09:45:14;;;;;;;4.97;0.20;;;16.50;99.90;;;;;;5054099;28;20240;-69
2022/07/10 09:47:56;;;;;;;6.55;0.30;;;16.60;99.90;;;;;;5056250;28;20043;-67
2022/07/10 09:50:26;;;;;;;3.28;0.20;;;16.60;99.90;;;;;;5053993;28;20141;-70
2022/07/10 09:52:59;;;;;;;8.18;0.40;;;16.80;99.90;;;;;;5062591;28;20040;-69
2022/07/10 09:55:29;;;;;;;3.95;0.20;;;17.20;99.90;;;;;;5055685;28;20051;-68
2022/07/10 09:58:15;;;;;;;5.28;0.20;;;17.20;99.90;;;;;;5054685;28;20411;-70
2022/07/10 10:00:42;;;;;;;4.75;0.28;;;17.10;99.90;;;;;;5052841;28;20052;-71
2022/07/10 10:03:11;;;;;;;3.13;0.30;;;17.10;99.90;;;;;;5052559;28;20056;-69
2022/07/10 10:05:44;;;;;;;6.43;0.30;;;17.10;99.90;;;;;;5055097;28;20044;-69
2022/07/10 10:08:19;;;;;;;6.30;0.35;;;16.90;99.90;;;;;;5055385;28;20050;-71
2022/07/10 10:10:49;;;;;;;7.07;0.30;;;16.80;99.90;;;;;;5056993;28;20101;-68
2022/07/10 10:13:23;;;;;;;3.55;0.50;;;16.70;99.90;;;;;;5049668;28;20051;-70
2022/07/10 10:15:51;;;;;;;4.13;0.35;;;16.80;99.90;;;;;;5057838;28;20439;-69
2022/07/10 10:18:24;;;;;;;4.75;0.20;;;16.90;99.90;;;;;;5070624;28;20632;-68
2022/07/10 10:20:54;;;;;;;5.82;0.28;;;17.00;99.90;;;;;;5052708;28;20036;-67
2022/07/10 10:23:24;;;;;;;6.85;0.35;;;17.00;99.90;;;;;;5054171;28;20145;-68
2022/07/10 10:25:53;;;;;;;4.70;0.20;;;16.90;99.90;;;;;;5051100;28;20039;-69
2022/07/10 10:28:23;;;;;;;4.30;0.40;;;16.80;99.90;;;;;;5055681;28;20175;-68
2022/07/10 10:30:54;;;;;;;6.72;0.47;;;16.40;99.90;;;;;;5054012;28;20060;-68
2022/07/10 10:33:32;;;;;;;3.67;0.30;;;16.20;99.90;;;;;;5054722;28;20538;-68
2022/07/10 10:36:02;;;;;;;3.92;0.30;;;15.80;99.90;;;;;;5054917;28;20043;-69
2022/07/10 10:38:59;;;;;;;5.30;0.30;;;15.70;99.90;;;;;;5038418;28;20051;-70
2022/07/10 10:41:31;;;;;;;3.33;0.20;;;15.80;99.90;;;;;;5054553;28;20063;-68
2022/07/10 10:44:11;;;;;;;2.37;0.20;;;15.80;99.90;;;;;;5034878;28;20050;-68
2022/07/10 10:46:56;;;;;;;2.28;0.20;;;16.00;99.90;;;;;;5034928;28;20290;-69
2022/07/10 10:49:24;;;;;;;3.22;0.28;;;16.30;99.90;;;;;;5053559;28;20352;-69
2022/07/10 10:52:02;;;;;;;2.92;0.20;;;16.40;99.90;;;;;;5054307;28;20651;-71
2022/07/10 10:54:57;;;;;;;2.60;0.20;;;16.30;99.90;;;;;;5044667;28;20036;-71
2022/07/10 10:57:47;;;;;;;3.40;0.20;;;16.70;99.90;;;;;;5056994;28;20044;-69
2022/07/10 11:00:15;;;;;;;2.00;0.20;;;16.70;99.90;;;;;;5055001;28;20059;-71
2022/07/10 11:02:41;;;;;;;1.65;0.30;;;17.00;99.90;;;;;;5054367;28;20040;-68
2022/07/10 11:07:54;;;;;;;1.42;0.20;;;17.30;99.90;;;;;;5056257;28;20556;-68
2022/07/10 11:10:33;;;;;;;1.08;0.10;;;17.30;99.90;;;;;;5056307;28;20687;-68
2022/07/10 11:13:07;;;;;;;2.58;0.20;;;17.20;99.90;;;;;;5058527;28;20042;-68
2022/07/10 11:15:36;;;;;;;1.48;0.20;;;16.90;99.90;;;;;;5057886;28;20651;-68
2022/07/10 11:18:16;;;;;;;1.42;0.20;;;17.00;99.90;;;;;;5062498;28;20044;-71
2022/07/10 11:20:50;;;;;;;4.22;0.35;;;16.70;99.90;;;;;;5057142;28;20048;-70
2022/07/10 11:23:53;;;;;;;1.88;0.30;;;16.70;99.90;;;;;;5055963;28;20529;-67
2022/07/10 11:26:49;;;;;;;2.90;0.30;;;16.50;99.90;;;;;;5055768;28;20704;-68
2022/07/10 11:29:18;;;;;;;3.67;0.50;;;16.60;99.90;;;;;;5054289;28;20178;-70
2022/07/10 11:31:52;;;;;;;6.05;0.30;;;16.60;99.90;;;;;;5057891;28;20338;-70
2022/07/10 11:34:18;;;;;;;1.63;0.22;;;16.60;99.90;;;;;;5037428;28;20048;-69
2022/07/10 11:36:44;;;;;;;3.90;0.30;;;16.60;99.90;;;;;;5057230;28;20048;-69
2022/07/10 11:39:09;;;;;;;3.38;0.30;;;16.70;99.90;;;;;;5055979;28;20095;-70
2022/07/10 11:41:48;;;;;;;3.08;0.50;;;16.70;99.90;;;;;;5056674;28;20089;-68
2022/07/10 11:44:18;;;;;;;4.55;0.50;;;16.50;99.90;;;;;;5055111;28;20480;-69
2022/07/10 11:46:45;;;;;;;2.33;0.40;;;16.20;99.90;;;;;;5064967;28;20047;-69
2022/07/10 11:49:11;;;;;;;3.78;0.30;;;16.00;99.90;;;;;;5058195;28;20040;-69
2022/07/10 11:51:40;;;;;;;4.53;0.50;;;15.90;99.90;;;;;;5056015;28;20052;-69
2022/07/10 11:54:15;;;;;;;4.50;0.63;;;15.80;99.90;;;;;;5053702;28;20098;-68
2022/07/10 11:56:46;;;;;;;6.05;0.70;;;15.60;99.90;;;;;;5056031;28;20131;-68
2022/07/10 11:59:13;;;;;;;6.55;0.90;;;15.60;99.90;;;;;;5050825;28;20642;-68
2022/07/10 12:01:44;;;;;;;3.20;0.77;;;15.50;99.90;;;;;;5054784;28;20127;-68
2022/07/10 12:04:11;;;;;;;7.18;1.35;;;15.60;99.90;;;;;;5054778;28;20654;-70
2022/07/10 12:06:40;;;;;;;6.95;1.40;;;15.60;99.90;;;;;;5057186;28;20036;-68
2022/07/10 12:09:08;;;;;;;3.10;1.08;;;15.70;99.90;;;;;;5053035;28;20050;-68
2022/07/10 12:11:35;;;;;;;10.07;1.15;;;15.60;99.90;;;;;;5058342;28;20080;-68
2022/07/10 12:14:18;;;;;;;9.25;1.20;;;15.50;99.90;;;;;;5054976;28;20056;-70
2022/07/10 12:16:45;;;;;;;6.97;0.87;;;15.50;99.90;;;;;;5051213;28;20295;-69
2022/07/10 12:19:14;;;;;;;7.38;0.93;;;15.60;99.90;;;;;;5055398;28;21041;-68
2022/07/10 12:21:42;;;;;;;4.45;0.68;;;15.70;99.90;;;;;;5053370;28;20040;-68
2022/07/10 12:24:08;;;;;;;8.32;1.00;;;15.80;99.90;;;;;;5055276;28;20088;-67
2022/07/10 12:26:38;;;;;;;10.20;1.00;;;15.80;99.90;;;;;;5056067;28;20048;-68
2022/07/10 12:29:05;;;;;;;6.50;0.60;;;15.90;99.90;;;;;;5056970;28;20048;-68
2022/07/10 12:31:34;;;;;;;7.97;0.60;;;16.00;99.90;;;;;;5053438;28;20740;-67
2022/07/10 12:34:05;;;;;;;5.18;0.60;;;16.00;99.90;;;;;;5051433;28;20703;-69
2022/07/10 12:36:51;;;;;;;5.95;0.60;;;16.00;99.90;;;;;;5054538;28;20420;-68
2022/07/10 12:39:22;;;;;;;10.25;1.02;;;16.10;99.90;;;;;;5035667;28;20056;-69
2022/07/10 12:41:54;;;;;;;6.90;1.00;;;16.10;99.90;;;;;;5033807;28;20067;-68
2022/07/10 12:44:42;;;;;;;5.53;0.70;;;16.50;99.90;;;;;;5056156;28;20857;-68
2022/07/10 12:47:11;;;;;;;7.80;1.40;;;16.60;99.90;;;;;;5051456;28;20056;-67
2022/07/10 12:50:03;;;;;;;6.78;0.60;;;16.70;99.90;;;;;;5059129;28;20052;-70
2022/07/10 12:52:38;;;;;;;7.32;0.73;;;16.80;99.90;;;;;;5062409;28;20052;-68
2022/07/10 12:55:13;;;;;;;7.43;0.90;;;16.90;99.90;;;;;;5056526;28;20051;-68
2022/07/10 12:57:48;;;;;;;6.72;0.65;;;16.70;99.90;;;;;;5049630;28;20041;-68
2022/07/10 13:00:16;;;;;;;5.50;0.60;;;16.70;99.90;;;;;;5051969;28;20503;-69
2022/07/10 13:02:43;;;;;;;7.47;0.60;;;16.50;99.90;;;;;;5053942;28;20071;-71